createdAt,value
2018-10-01T00:00:46.028Z,10.57
2018-10-01T00:05:49.904Z,10.70
2018-10-01T00:10:53.770Z,9.90
2018-10-01T00:15:57.649Z,10.87
2018-10-01T00:21:06.719Z,11.13
2018-10-01T00:26:10.520Z,12.33
2018-10-01T00:31:14.135Z,12.13
2018-10-01T00:36:17.908Z,12.57
2018-10-01T00:41:22.149Z,12.10
2018-10-01T00:46:26.029Z,13.93
2018-10-01T00:51:29.888Z,13.73
2018-10-01T00:56:33.744Z,12.37
2018-10-01T01:01:37.625Z,11.90
2018-10-01T01:06:41.510Z,11.67
2018-10-01T01:11:45.368Z,11.90
2018-10-01T01:16:49.258Z,14.10
2018-10-01T01:21:53.162Z,15.37
2018-10-01T01:26:57.024Z,12.93
2018-10-01T01:32:00.888Z,12.13
2018-10-01T01:37:04.772Z,11.97
2018-10-01T01:42:08.652Z,10.97
2018-10-01T01:47:12.516Z,10.83
2018-10-01T01:52:16.369Z,11.63
2018-10-01T01:57:20.248Z,12.30
2018-10-01T02:02:24.119Z,11.80
2018-10-01T02:07:28.004Z,11.67
2018-10-01T02:12:34.071Z,10.80
2018-10-01T02:17:37.929Z,11.23
2018-10-01T02:22:41.819Z,11.53
2018-10-01T02:27:45.452Z,11.20
2018-10-01T02:32:50.479Z,11.47
2018-10-01T02:37:54.313Z,11.83
2018-10-01T02:42:58.231Z,12.63
2018-10-01T02:48:02.136Z,12.10
2018-10-01T02:53:11.275Z,12.83
2018-10-01T02:58:15.053Z,13.40
2018-10-01T03:03:18.938Z,13.40
2018-10-01T03:08:22.811Z,13.83
2018-10-01T03:13:26.700Z,14.53
2018-10-01T03:18:31.043Z,14.37
2018-10-01T03:23:34.905Z,14.40
2018-10-01T03:28:38.791Z,14.20
2018-10-01T03:33:42.667Z,14.80
2018-10-01T03:38:46.562Z,15.43
2018-10-01T03:43:50.583Z,14.10
2018-10-01T03:48:54.823Z,13.43
2018-10-01T03:53:58.706Z,13.80
2018-10-01T03:59:02.591Z,13.70
2018-10-01T04:04:06.464Z,12.80
2018-10-01T04:09:10.601Z,12.57
2018-10-01T04:14:14.467Z,13.10
2018-10-01T04:19:18.317Z,13.50
2018-10-01T04:24:22.836Z,13.10
2018-10-01T04:29:26.445Z,13.27
2018-10-01T04:34:30.221Z,12.60
2018-10-01T04:39:34.120Z,11.53
2018-10-01T04:44:38.036Z,11.80
2018-10-01T04:49:41.899Z,13.47
2018-10-01T04:54:45.783Z,12.27
2018-10-01T04:59:49.406Z,13.93
2018-10-01T05:04:53.203Z,13.30
2018-10-01T05:09:57.095Z,14.43
2018-10-01T05:15:01.847Z,17.83
2018-10-01T05:20:05.556Z,19.60
2018-10-01T05:25:09.144Z,14.13
2018-10-01T05:30:13.040Z,13.00
2018-10-01T05:35:16.901Z,14.13
2018-10-01T05:40:20.798Z,13.77
2018-10-01T05:45:24.675Z,14.60
2018-10-01T05:50:28.546Z,12.30
2018-10-01T05:55:32.510Z,15.37
2018-10-01T06:00:36.127Z,14.17
2018-10-01T06:05:39.915Z,15.57
2018-10-01T06:10:43.895Z,14.63
2018-10-01T06:15:48.314Z,13.57
2018-10-01T06:20:52.477Z,17.40
2018-10-01T06:25:56.390Z,15.67
2018-10-01T06:31:00.084Z,13.83
2018-10-01T06:36:03.734Z,13.60
2018-10-01T06:41:07.274Z,13.77
2018-10-01T06:46:11.095Z,13.60
2018-10-01T06:51:16.768Z,12.37
2018-10-01T06:56:21.057Z,13.53
2018-10-01T07:01:25.490Z,12.13
2018-10-01T07:06:31.342Z,13.50
2018-10-01T07:11:35.561Z,13.80
2018-10-01T07:16:39.844Z,12.93
2018-10-01T07:21:45.660Z,12.37
2018-10-01T07:26:50.932Z,11.83
2018-10-01T07:31:56.825Z,12.77
2018-10-01T07:37:01.927Z,11.27
2018-10-01T07:42:09.518Z,13.13
2018-10-01T07:47:16.139Z,12.83
2018-10-01T07:52:24.512Z,12.03
2018-10-01T07:57:30.077Z,12.00
2018-10-01T08:02:36.118Z,11.67
2018-10-01T08:07:40.844Z,11.20
2018-10-01T08:12:46.377Z,10.77
2018-10-01T08:17:53.185Z,10.40
2018-10-01T08:22:58.675Z,9.20
2018-10-01T08:28:02.650Z,8.90
2018-10-01T08:33:06.243Z,9.47
2018-10-01T08:38:10.547Z,7.83
2018-10-01T08:43:18.818Z,9.70
2018-10-01T08:48:26.227Z,9.47
2018-10-01T08:53:41.947Z,8.47
2018-10-01T08:58:48.922Z,7.63
2018-10-01T09:03:54.229Z,8.00
2018-10-01T09:08:59.019Z,8.60
2018-10-01T09:14:03.792Z,7.93
2018-10-01T09:19:11.268Z,8.30
2018-10-01T09:24:17.134Z,7.00
2018-10-01T09:29:24.684Z,5.17
2018-10-01T09:34:30.491Z,6.23
2018-10-01T09:39:36.858Z,5.50
2018-10-01T09:44:42.641Z,6.07
2018-10-01T09:49:48.676Z,5.40
2018-10-01T09:54:55.505Z,6.40
2018-10-01T10:00:01.141Z,5.07
2018-10-01T10:05:07.933Z,7.43
2018-10-01T10:10:17.946Z,6.30
2018-10-01T10:15:27.044Z,6.83
2018-10-01T10:20:33.091Z,5.60
2018-10-01T10:25:39.558Z,5.30
2018-10-01T10:30:46.701Z,5.10
2018-10-01T10:35:52.982Z,5.37
2018-10-01T10:40:58.344Z,4.37
2018-10-01T10:46:05.040Z,4.50
2018-10-01T10:51:11.998Z,4.50
2018-10-01T10:56:19.527Z,4.60
2018-10-01T11:01:27.672Z,3.90
2018-10-01T11:06:32.287Z,4.13
2018-10-01T11:11:36.143Z,4.10
2018-10-01T11:16:40.012Z,4.40
2018-10-01T11:21:44.073Z,4.50
2018-10-01T11:26:47.737Z,3.90
2018-10-01T11:31:51.707Z,4.27
2018-10-01T11:36:55.486Z,3.97
2018-10-01T11:41:59.378Z,3.63
2018-10-01T11:47:03.787Z,3.30
2018-10-01T11:52:07.780Z,3.57
2018-10-01T11:57:11.697Z,3.43
2018-10-01T12:02:15.491Z,2.80
2018-10-01T12:07:19.099Z,2.40
2018-10-01T12:12:22.862Z,2.30
2018-10-01T12:17:26.738Z,2.93
2018-10-01T12:22:30.329Z,2.53
2018-10-01T12:27:33.910Z,3.60
2018-10-01T12:32:37.615Z,2.63
2018-10-01T12:37:41.485Z,2.73
2018-10-01T12:42:45.173Z,3.00
2018-10-01T12:47:48.889Z,2.77
2018-10-01T12:52:52.753Z,3.27
2018-10-01T12:57:56.759Z,3.37
2018-10-01T13:03:00.593Z,3.87
2018-10-01T13:08:04.463Z,3.90
2018-10-01T13:13:08.371Z,3.83
2018-10-01T13:18:12.020Z,4.00
2018-10-01T13:23:18.235Z,3.57
2018-10-01T13:28:23.552Z,3.50
2018-10-01T13:33:29.430Z,4.53
2018-10-01T13:38:35.137Z,5.43
2018-10-01T13:43:43.176Z,5.40
2018-10-01T13:48:48.497Z,4.37
2018-10-01T13:53:55.655Z,6.13
2018-10-01T13:59:01.741Z,5.60
2018-10-01T14:04:07.469Z,6.10
2018-10-01T14:09:18.770Z,6.93
2018-10-01T14:14:25.272Z,7.93
2018-10-01T14:19:32.132Z,8.00
2018-10-01T14:24:38.733Z,6.80
2018-10-01T14:29:43.651Z,7.30
2018-10-01T14:34:47.721Z,6.83
2018-10-01T14:39:51.637Z,4.70
2018-10-01T14:44:55.325Z,6.03
2018-10-01T14:49:58.834Z,5.53
2018-10-01T14:55:02.399Z,3.57
2018-10-01T15:00:05.983Z,3.30
2018-10-01T15:05:09.724Z,5.10
2018-10-01T15:10:13.599Z,4.30
2018-10-01T15:15:17.476Z,3.83
2018-10-01T15:20:21.078Z,3.23
2018-10-01T15:25:24.609Z,3.40
2018-10-01T15:30:28.177Z,3.30
2018-10-01T15:35:31.649Z,3.03
2018-10-01T15:40:35.416Z,3.90
2018-10-01T15:45:39.021Z,3.47
2018-10-01T15:50:42.784Z,3.53
2018-10-01T15:55:46.769Z,3.67
2018-10-01T16:00:50.615Z,3.43
2018-10-01T16:05:54.697Z,4.13
2018-10-01T16:10:58.552Z,3.90
2018-10-01T16:16:02.402Z,3.73
2018-10-01T16:21:06.009Z,3.63
2018-10-01T16:31:18.790Z,6.80
2018-10-01T16:36:24.390Z,9.60
2018-10-01T16:41:30.629Z,5.93
2018-10-01T16:46:37.820Z,4.70
2018-10-01T16:51:44.250Z,4.30
2018-10-01T16:56:49.764Z,4.90
2018-10-01T17:01:55.365Z,4.77
2018-10-01T17:08:03.114Z,5.03
2018-10-01T17:13:08.634Z,4.97
2018-10-01T17:18:14.558Z,7.30
2018-10-01T17:23:21.643Z,14.63
2018-10-01T17:28:28.007Z,9.13
2018-10-01T17:33:34.655Z,5.60
2018-10-01T17:38:41.538Z,5.03
2018-10-01T17:43:45.307Z,6.07
2018-10-01T17:48:48.830Z,5.60
2018-10-01T17:53:52.614Z,4.67
2018-10-01T17:58:56.524Z,3.63
2018-10-01T18:04:01.183Z,3.50
2018-10-01T18:09:06.867Z,4.97
2018-10-01T18:14:10.765Z,10.80
2018-10-01T18:19:14.343Z,5.70
2018-10-01T18:24:18.375Z,6.80
2018-10-01T18:29:23.472Z,5.37
2018-10-01T18:34:28.515Z,4.27
2018-10-01T18:39:34.372Z,3.30
2018-10-01T18:44:40.071Z,4.13
2018-10-01T18:49:45.099Z,3.10
2018-10-01T18:54:50.161Z,2.47
2018-10-01T18:59:55.693Z,2.00
2018-10-01T19:05:02.098Z,2.40
2018-10-01T19:10:07.077Z,2.40
2018-10-01T19:15:12.620Z,2.27
2018-10-01T19:20:17.769Z,2.50
2018-10-01T19:25:23.402Z,3.13
2018-10-01T19:30:29.235Z,2.87
2018-10-01T19:35:36.143Z,2.63
2018-10-01T19:40:41.962Z,2.30
2018-10-01T19:45:46.604Z,3.10
2018-10-01T19:50:50.257Z,2.53
2018-10-01T19:55:58.187Z,2.57
2018-10-01T20:01:03.902Z,2.60
2018-10-01T20:06:09.772Z,2.60
2018-10-01T20:11:15.872Z,2.87
2018-10-01T20:16:20.875Z,3.67
2018-10-01T20:21:25.072Z,2.63
2018-10-01T20:26:28.763Z,2.53
2018-10-01T20:31:32.512Z,2.50
2018-10-01T20:36:36.510Z,3.47
2018-10-01T20:41:42.095Z,2.93
2018-10-01T20:46:46.628Z,2.50
2018-10-01T20:51:50.177Z,3.27
2018-10-01T20:56:53.689Z,2.57
2018-10-01T21:01:58.427Z,2.60
2018-10-01T21:07:02.317Z,2.27
2018-10-01T21:12:06.481Z,2.00
2018-10-01T21:17:10.062Z,2.50
2018-10-01T21:22:13.838Z,2.37
2018-10-01T21:27:17.686Z,2.47
2018-10-01T21:32:21.541Z,2.13
2018-10-01T21:37:25.391Z,2.30
2018-10-01T21:42:29.706Z,2.30
2018-10-01T21:47:33.747Z,1.47
2018-10-01T21:52:37.538Z,2.17
2018-10-01T21:57:41.512Z,1.20
2018-10-01T22:02:45.371Z,1.93
2018-10-01T22:07:50.091Z,1.87
2018-10-01T22:12:53.977Z,1.90
2018-10-01T22:17:57.842Z,1.70
2018-10-01T22:23:01.699Z,2.40
2018-10-01T22:28:05.968Z,1.90
2018-10-01T22:33:10.081Z,1.60
2018-10-01T22:38:13.950Z,0.80
2018-10-01T22:43:17.802Z,0.70
2018-10-01T22:48:21.394Z,0.30
2018-10-01T22:53:25.181Z,0.40
2018-10-01T22:58:29.026Z,0.30
2018-10-01T23:03:32.887Z,0.30
2018-10-01T23:08:36.485Z,0.27
2018-10-01T23:13:40.254Z,0.40
2018-10-01T23:18:44.114Z,0.40
2018-10-01T23:23:47.959Z,0.33
2018-10-01T23:28:51.552Z,0.20
2018-10-01T23:33:55.363Z,0.40
2018-10-01T23:38:59.222Z,0.63
2018-10-01T23:44:03.112Z,0.40
2018-10-01T23:49:06.732Z,0.50
2018-10-01T23:54:10.511Z,0.33
2018-10-01T23:59:14.402Z,0.57
